Time;durP1;ratioP1;P1;durP2;ratioP2;P2;SDS_P1;SDS_P2;PMS_P1;PMS_P2;Temp;Humidity;BMP_temperature;BMP_pressure;BME280_temperature;BME280_humidity;BME280_pressure;Samples;Min_cycle;Max_cycle;Signal;HPM_P1;HPM_P2
2022/02/22 00:01:23;;;;;;;6.25;1.42;;;;;;;;;;5069505;28;20021;-77
2022/02/22 00:03:48;;;;;;;7.45;1.77;;;;;;;;;;5071209;28;20036;-76
2022/02/22 00:06:14;;;;;;;10.10;2.08;;;;;;;;;;5070414;28;20048;-76
2022/02/22 00:08:41;;;;;;;7.88;1.50;;;;;;;;;;5069465;28;20393;-76
2022/02/22 00:11:07;;;;;;;9.23;1.50;;;;;;;;;;5072971;28;20028;-76
2022/02/22 00:13:35;;;;;;;9.10;1.90;;;;;;;;;;5070431;28;20051;-76
2022/02/22 00:16:00;;;;;;;4.97;1.52;;;;;;;;;;5066318;28;20499;-76
2022/02/22 00:18:27;;;;;;;7.15;1.85;;;;;;;;;;5069293;28;20020;-76
2022/02/22 00:20:58;;;;;;;8.98;1.90;;;;;;;;;;5070532;28;20055;-76
2022/02/22 00:23:23;;;;;;;8.27;1.60;;;;;;;;;;5070646;28;20439;-75
2022/02/22 00:25:49;;;;;;;6.88;2.05;;;;;;;;;;5068704;28;20025;-76
2022/02/22 00:28:17;;;;;;;11.32;2.30;;;;;;;;;;5070438;28;20118;-77
2022/02/22 00:30:42;;;;;;;6.60;1.48;;;;;;;;;;5070390;28;20128;-77
2022/02/22 00:33:08;;;;;;;8.55;1.58;;;;;;;;;;5072661;28;20541;-77
2022/02/22 00:35:34;;;;;;;4.13;1.35;;;;;;;;;;5052444;28;20036;-77
2022/02/22 00:37:59;;;;;;;9.07;1.70;;;;;;;;;;5070984;28;20059;-76
2022/02/22 00:40:27;;;;;;;8.35;1.67;;;;;;;;;;5051680;28;20462;-75
2022/02/22 00:42:53;;;;;;;8.68;2.05;;;;;;;;;;5050096;28;20086;-76
2022/02/22 00:45:18;;;;;;;10.27;2.38;;;;;;;;;;5070625;28;20020;-77
2022/02/22 00:47:44;;;;;;;5.75;1.60;;;;;;;;;;5073052;28;20099;-77
2022/02/22 00:50:09;;;;;;;6.85;1.60;;;;;;;;;;5057273;28;20113;-75
2022/02/22 00:52:35;;;;;;;6.05;1.80;;;;;;;;;;5074718;28;20040;-75
2022/02/22 00:55:00;;;;;;;8.35;2.17;;;;;;;;;;5076552;28;20085;-76
2022/02/22 00:57:28;;;;;;;4.32;1.63;;;;;;;;;;5075709;28;20040;-77
2022/02/22 00:59:53;;;;;;;10.15;2.25;;;;;;;;;;5076405;28;20397;-76
2022/02/22 01:02:19;;;;;;;8.38;1.80;;;;;;;;;;5075719;28;20120;-76
2022/02/22 01:04:44;;;;;;;7.50;1.38;;;;;;;;;;5075201;28;20116;-77
2022/02/22 01:07:16;;;;;;;8.75;1.88;;;;;;;;;;5061659;28;20047;-76
2022/02/22 01:09:43;;;;;;;9.30;1.83;;;;;;;;;;5058453;28;20134;-78
2022/02/22 01:12:12;;;;;;;9.77;2.08;;;;;;;;;;5069731;28;20035;-76
2022/02/22 01:14:38;;;;;;;9.07;2.17;;;;;;;;;;5050513;28;20028;-77
2022/02/22 01:17:04;;;;;;;9.85;2.33;;;;;;;;;;5069895;28;20442;-77
2022/02/22 01:19:30;;;;;;;7.18;1.98;;;;;;;;;;5068888;28;20416;-77
2022/02/22 01:21:58;;;;;;;9.77;1.95;;;;;;;;;;5066962;28;20024;-77
2022/02/22 01:24:26;;;;;;;6.70;2.10;;;;;;;;;;5050049;28;20023;-76
2022/02/22 01:26:54;;;;;;;7.90;1.40;;;;;;;;;;5069580;28;20511;-76
2022/02/22 01:29:20;;;;;;;9.10;1.98;;;;;;;;;;5068188;28;20056;-77
2022/02/22 01:31:45;;;;;;;6.80;1.50;;;;;;;;;;5073097;28;20105;-76
2022/02/22 01:34:11;;;;;;;6.35;1.50;;;;;;;;;;5053442;28;20016;-75
2022/02/22 01:36:36;;;;;;;8.02;1.50;;;;;;;;;;5053991;28;20039;-77
2022/02/22 01:39:03;;;;;;;5.35;2.00;;;;;;;;;;5071537;28;20559;-76
2022/02/22 01:41:29;;;;;;;9.10;2.33;;;;;;;;;;5071306;28;20028;-76
2022/02/22 01:43:55;;;;;;;8.60;1.55;;;;;;;;;;5072822;28;20031;-77
2022/02/22 01:46:21;;;;;;;7.97;1.92;;;;;;;;;;5071607;28;20039;-77
2022/02/22 01:48:47;;;;;;;4.15;1.50;;;;;;;;;;5072802;28;20040;-78
2022/02/22 01:51:13;;;;;;;3.70;1.23;;;;;;;;;;5072846;28;20037;-76
2022/02/22 01:53:38;;;;;;;15.55;1.85;;;;;;;;;;5073455;28;20032;-76
2022/02/22 01:56:07;;;;;;;6.72;1.60;;;;;;;;;;5073074;28;20043;-76
2022/02/22 01:58:36;;;;;;;5.43;1.63;;;;;;;;;;5055364;28;20041;-77
2022/02/22 02:01:01;;;;;;;11.13;1.70;;;;;;;;;;5073243;28;20099;-77
2022/02/22 02:03:29;;;;;;;7.85;2.38;;;;;;;;;;5071769;28;20104;-77
2022/02/22 02:05:55;;;;;;;11.05;1.83;;;;;;;;;;5069255;28;20124;-77
2022/02/22 02:08:21;;;;;;;7.07;1.63;;;;;;;;;;5071868;28;20128;-76
2022/02/22 02:10:46;;;;;;;6.97;1.75;;;;;;;;;;5052559;28;20131;-76
2022/02/22 02:13:12;;;;;;;9.57;2.72;;;;;;;;;;5072095;28;20052;-75
2022/02/22 02:15:38;;;;;;;8.57;2.20;;;;;;;;;;5072427;28;20029;-77
2022/02/22 02:18:03;;;;;;;5.88;1.60;;;;;;;;;;5072275;28;20025;-77
2022/02/22 02:20:29;;;;;;;6.65;1.50;;;;;;;;;;5058755;28;20192;-77
2022/02/22 02:22:56;;;;;;;8.85;1.92;;;;;;;;;;5052803;28;20275;-78
2022/02/22 02:25:22;;;;;;;5.40;1.50;;;;;;;;;;5054309;28;20507;-76
2022/02/22 02:27:48;;;;;;;4.35;1.30;;;;;;;;;;5061016;28;20036;-76
2022/02/22 02:30:17;;;;;;;7.80;1.85;;;;;;;;;;5053882;28;20032;-76
2022/02/22 02:32:49;;;;;;;1.73;1.20;;;;;;;;;;5051360;28;20127;-77
2022/02/22 02:35:14;;;;;;;6.65;1.95;;;;;;;;;;5071861;28;20024;-76
2022/02/22 02:37:41;;;;;;;3.03;1.27;;;;;;;;;;5052967;28;20031;-77
2022/02/22 02:40:09;;;;;;;6.32;1.35;;;;;;;;;;5053574;28;20226;-78
2022/02/22 02:42:43;;;;;;;5.53;1.83;;;;;;;;;;5054715;28;20033;-77
2022/02/22 02:45:11;;;;;;;7.90;1.58;;;;;;;;;;5071311;28;20016;-77
2022/02/22 02:47:37;;;;;;;7.28;1.80;;;;;;;;;;5072789;28;20332;-76
2022/02/22 02:50:05;;;;;;;10.15;2.00;;;;;;;;;;5055101;28;20033;-77
2022/02/22 02:52:30;;;;;;;7.25;1.65;;;;;;;;;;5057342;28;20089;-76
2022/02/22 02:54:57;;;;;;;6.35;1.45;;;;;;;;;;5072403;28;20020;-77
2022/02/22 02:57:22;;;;;;;7.30;1.83;;;;;;;;;;5072497;28;20031;-76
2022/02/22 02:59:50;;;;;;;6.78;1.70;;;;;;;;;;5073432;28;20115;-77
2022/02/22 03:02:15;;;;;;;4.18;1.75;;;;;;;;;;5052678;28;20032;-77
2022/02/22 03:04:41;;;;;;;7.53;2.17;;;;;;;;;;5072796;28;20384;-77
2022/02/22 03:07:09;;;;;;;6.35;1.70;;;;;;;;;;5071776;28;20471;-77
2022/02/22 03:09:34;;;;;;;3.15;1.70;;;;;;;;;;5069817;28;20036;-77
2022/02/22 03:11:59;;;;;;;5.72;1.67;;;;;;;;;;5070736;28;20428;-77
2022/02/22 03:14:25;;;;;;;6.15;2.22;;;;;;;;;;5072402;28;20055;-76
2022/02/22 03:16:53;;;;;;;6.20;1.50;;;;;;;;;;5071827;28;20490;-76
2022/02/22 03:19:21;;;;;;;7.35;1.52;;;;;;;;;;5070474;28;20082;-76
2022/02/22 03:21:46;;;;;;;4.68;1.75;;;;;;;;;;5070204;28;20065;-75
2022/02/22 03:24:12;;;;;;;6.15;1.88;;;;;;;;;;5071127;28;20075;-76
2022/02/22 03:26:39;;;;;;;7.20;2.25;;;;;;;;;;5053458;28;20044;-77
2022/02/22 03:29:05;;;;;;;9.45;2.33;;;;;;;;;;5067745;28;20039;-77
2022/02/22 03:31:33;;;;;;;7.65;1.85;;;;;;;;;;5070773;28;20025;-76
2022/02/22 03:33:59;;;;;;;9.05;1.75;;;;;;;;;;5053076;28;20170;-76
2022/02/22 03:36:30;;;;;;;12.15;2.08;;;;;;;;;;5070693;28;20046;-77
2022/02/22 03:38:56;;;;;;;8.82;2.17;;;;;;;;;;5065471;28;20024;-77
2022/02/22 03:41:22;;;;;;;4.07;1.67;;;;;;;;;;5052801;28;20500;-77
2022/02/22 03:43:50;;;;;;;8.07;1.75;;;;;;;;;;5052832;28;20033;-77
2022/02/22 03:46:16;;;;;;;6.47;1.75;;;;;;;;;;5070811;28;20151;-77
2022/02/22 03:48:44;;;;;;;9.13;2.28;;;;;;;;;;5070190;28;20499;-78
2022/02/22 03:51:09;;;;;;;7.55;1.52;;;;;;;;;;5070098;28;20389;-77
2022/02/22 03:53:35;;;;;;;9.88;2.30;;;;;;;;;;5052306;28;20032;-77
2022/02/22 03:56:00;;;;;;;8.60;2.15;;;;;;;;;;5070262;28;20705;-77
2022/02/22 03:58:26;;;;;;;9.50;2.15;;;;;;;;;;5052766;28;20040;-77
2022/02/22 04:00:54;;;;;;;5.45;1.98;;;;;;;;;;5070928;28;20089;-76
2022/02/22 04:03:19;;;;;;;5.55;2.40;;;;;;;;;;5052643;28;20632;-77
2022/02/22 04:05:47;;;;;;;11.50;2.25;;;;;;;;;;5051184;28;20060;-77
2022/02/22 04:08:14;;;;;;;8.32;2.10;;;;;;;;;;5069741;28;20070;-77
2022/02/22 04:10:39;;;;;;;9.10;2.45;;;;;;;;;;5070600;28;20028;-77
2022/02/22 04:13:05;;;;;;;10.52;2.45;;;;;;;;;;5053112;28;20120;-76
2022/02/22 04:15:30;;;;;;;5.72;1.88;;;;;;;;;;5052382;28;20043;-77
2022/02/22 04:17:55;;;;;;;6.45;1.95;;;;;;;;;;5070553;28;20099;-77
2022/02/22 04:20:24;;;;;;;6.38;2.20;;;;;;;;;;5051611;28;20420;-77
2022/02/22 04:22:50;;;;;;;5.07;2.00;;;;;;;;;;5069237;28;20024;-77
2022/02/22 04:25:15;;;;;;;5.88;2.00;;;;;;;;;;5070227;28;20100;-77
2022/02/22 04:27:43;;;;;;;9.77;2.47;;;;;;;;;;5070427;28;20032;-76
2022/02/22 04:30:09;;;;;;;8.43;2.38;;;;;;;;;;5069772;28;20028;-77
2022/02/22 04:32:35;;;;;;;7.82;2.13;;;;;;;;;;5070952;28;20043;-77
2022/02/22 04:35:00;;;;;;;8.38;2.28;;;;;;;;;;5071437;28;20021;-77
2022/02/22 04:37:26;;;;;;;5.70;2.00;;;;;;;;;;5052387;28;20632;-77
2022/02/22 04:39:54;;;;;;;8.85;2.42;;;;;;;;;;5070018;28;20039;-77
2022/02/22 04:42:20;;;;;;;5.10;1.92;;;;;;;;;;5069524;28;20020;-77
2022/02/22 04:44:46;;;;;;;5.07;1.80;;;;;;;;;;5050932;28;20024;-77
2022/02/22 04:47:12;;;;;;;5.63;2.08;;;;;;;;;;5053976;28;20075;-78
2022/02/22 04:49:40;;;;;;;9.90;2.05;;;;;;;;;;5070523;28;20040;-79
2022/02/22 04:52:08;;;;;;;10.52;2.38;;;;;;;;;;5052971;28;20036;-77
2022/02/22 04:54:36;;;;;;;9.43;2.88;;;;;;;;;;5071052;28;20033;-77
2022/02/22 04:57:06;;;;;;;11.18;2.55;;;;;;;;;;5071570;28;20036;-77
2022/02/22 04:59:33;;;;;;;7.90;2.10;;;;;;;;;;5051207;28;20074;-77
2022/02/22 05:01:58;;;;;;;8.35;2.50;;;;;;;;;;5069132;28;20025;-77
2022/02/22 05:04:24;;;;;;;5.55;1.92;;;;;;;;;;5073437;28;20028;-77
2022/02/22 05:06:49;;;;;;;8.02;1.83;;;;;;;;;;5072371;28;20951;-76
2022/02/22 05:09:17;;;;;;;9.90;2.78;;;;;;;;;;5074157;28;20063;-77
2022/02/22 05:11:47;;;;;;;6.55;2.10;;;;;;;;;;5056345;28;20140;-76
2022/02/22 05:14:12;;;;;;;13.23;3.03;;;;;;;;;;5074323;28;20036;-76
2022/02/22 05:16:39;;;;;;;9.20;2.70;;;;;;;;;;5056190;28;20157;-76
2022/02/22 05:19:05;;;;;;;8.23;2.70;;;;;;;;;;5053864;28;20393;-77
2022/02/22 05:21:31;;;;;;;7.97;3.05;;;;;;;;;;5053750;28;20043;-76
2022/02/22 05:24:00;;;;;;;8.13;2.22;;;;;;;;;;5053756;28;20500;-75
2022/02/22 05:26:25;;;;;;;7.43;2.53;;;;;;;;;;5073537;28;20103;-76
2022/02/22 05:28:51;;;;;;;9.85;3.22;;;;;;;;;;5073965;28;20166;-76
2022/02/22 05:31:19;;;;;;;6.40;2.95;;;;;;;;;;5082604;28;20023;-76
2022/02/22 05:33:46;;;;;;;10.48;2.65;;;;;;;;;;5074313;28;20028;-77
2022/02/22 05:36:14;;;;;;;6.20;3.00;;;;;;;;;;5069807;28;20126;-77
2022/02/22 05:38:40;;;;;;;5.03;2.42;;;;;;;;;;5071236;28;20032;-76
2022/02/22 05:41:06;;;;;;;5.00;2.40;;;;;;;;;;5073017;28;20453;-77
2022/02/22 05:43:34;;;;;;;9.75;2.50;;;;;;;;;;5054022;28;20036;-76
2022/02/22 05:45:59;;;;;;;4.53;2.72;;;;;;;;;;5054832;28;20115;-77
2022/02/22 05:48:24;;;;;;;9.25;3.30;;;;;;;;;;5055297;28;20466;-76
2022/02/22 05:50:50;;;;;;;8.00;3.30;;;;;;;;;;5070818;28;20082;-77
2022/02/22 05:53:15;;;;;;;15.40;3.75;;;;;;;;;;5054402;28;20029;-77
2022/02/22 05:55:41;;;;;;;18.25;6.57;;;;;;;;;;5073855;28;20085;-76
2022/02/22 05:58:06;;;;;;;18.38;6.97;;;;;;;;;;5072599;28;20366;-76
2022/02/22 06:00:32;;;;;;;16.98;6.55;;;;;;;;;;5070606;28;20558;-75
2022/02/22 06:02:59;;;;;;;14.68;4.10;;;;;;;;;;5072445;28;20056;-75
2022/02/22 06:05:25;;;;;;;17.50;5.47;;;;;;;;;;5072717;28;20044;-76
2022/02/22 06:07:50;;;;;;;9.80;3.22;;;;;;;;;;5070485;28;20489;-76
2022/02/22 06:10:18;;;;;;;8.95;3.20;;;;;;;;;;5070571;28;20036;-76
2022/02/22 06:12:48;;;;;;;9.40;2.78;;;;;;;;;;5054664;28;20024;-76
2022/02/22 06:15:13;;;;;;;6.45;2.97;;;;;;;;;;5073327;28;20027;-76
2022/02/22 06:17:45;;;;;;;10.85;3.38;;;;;;;;;;5052687;28;20374;-76
2022/02/22 06:20:12;;;;;;;12.65;3.35;;;;;;;;;;5071051;28;20064;-76
2022/02/22 06:22:41;;;;;;;9.52;3.28;;;;;;;;;;5054256;28;20108;-75
2022/02/22 06:25:08;;;;;;;13.52;3.50;;;;;;;;;;5056020;28;20173;-76
2022/02/22 06:27:45;;;;;;;7.10;3.10;;;;;;;;;;5053324;28;20030;-76
2022/02/22 06:30:14;;;;;;;12.30;3.60;;;;;;;;;;5070037;28;20036;-76
2022/02/22 06:32:39;;;;;;;13.77;3.50;;;;;;;;;;5065884;28;20060;-75
2022/02/22 06:35:05;;;;;;;14.02;4.18;;;;;;;;;;5057587;28;20052;-74
2022/02/22 06:37:31;;;;;;;9.90;3.60;;;;;;;;;;5077721;28;20465;-75
2022/02/22 06:42:27;;;;;;;11.80;3.47;;;;;;;;;;5023146;28;20050;-55
2022/02/22 06:44:53;;;;;;;10.07;3.50;;;;;;;;;;5027305;28;20480;-58
2022/02/22 06:47:19;;;;;;;16.65;4.53;;;;;;;;;;5024508;28;20092;-56
2022/02/22 06:49:44;;;;;;;13.43;3.38;;;;;;;;;;5023237;28;20460;-58
2022/02/22 06:52:10;;;;;;;14.95;3.80;;;;;;;;;;5027904;28;20108;-58
2022/02/22 06:54:35;;;;;;;19.17;5.03;;;;;;;;;;5010735;28;20120;-58
2022/02/22 06:57:00;;;;;;;18.63;5.47;;;;;;;;;;5025580;28;20048;-57
2022/02/22 06:59:26;;;;;;;12.93;4.05;;;;;;;;;;5021198;28;20493;-58
2022/02/22 07:01:51;;;;;;;12.70;5.05;;;;;;;;;;5020223;28;20694;-57
2022/02/22 07:04:17;;;;;;;20.50;5.10;;;;;;;;;;5025491;28;20029;-56
2022/02/22 07:06:42;;;;;;;13.30;4.60;;;;;;;;;;5016132;28;20037;-56
2022/02/22 07:09:08;;;;;;;20.95;5.65;;;;;;;;;;5019038;28;20543;-56
2022/02/22 07:11:33;;;;;;;10.70;4.40;;;;;;;;;;5020805;28;20045;-57
2022/02/22 07:13:59;;;;;;;12.35;4.20;;;;;;;;;;5021429;28;20094;-57
2022/02/22 07:16:24;;;;;;;7.15;3.08;;;;;;;;;;5014283;28;20060;-56
2022/02/22 07:18:49;;;;;;;8.30;3.08;;;;;;;;;;5002793;28;20120;-57
2022/02/22 07:21:15;;;;;;;9.80;3.25;;;;;;;;;;5015607;28;20400;-56
2022/02/22 07:23:40;;;;;;;11.55;3.78;;;;;;;;;;5013916;28;20068;-58
2022/02/22 07:26:06;;;;;;;10.77;4.07;;;;;;;;;;5012631;28;20049;-57
2022/02/22 07:28:31;;;;;;;16.75;6.20;;;;;;;;;;5017397;28;20104;-57
2022/02/22 07:30:57;;;;;;;13.68;3.75;;;;;;;;;;5016989;28;20061;-56
2022/02/22 07:33:22;;;;;;;16.02;3.78;;;;;;;;;;5015350;28;20042;-57
2022/02/22 07:35:48;;;;;;;15.32;3.38;;;;;;;;;;5017150;28;20380;-57
2022/02/22 07:38:13;;;;;;;7.75;3.28;;;;;;;;;;5018794;28;20075;-57
2022/02/22 07:40:39;;;;;;;8.85;4.30;;;;;;;;;;5017699;28;20044;-57
2022/02/22 07:43:04;;;;;;;11.45;3.28;;;;;;;;;;5021669;28;20468;-56
2022/02/22 07:45:30;;;;;;;14.07;3.40;;;;;;;;;;5015360;28;20058;-58
2022/02/22 07:47:56;;;;;;;9.07;3.55;;;;;;;;;;5010482;28;20021;-55
2022/02/22 07:50:21;;;;;;;7.93;3.10;;;;;;;;;;5011735;28;20057;-57
2022/02/22 07:52:47;;;;;;;11.35;3.10;;;;;;;;;;5019115;28;20037;-57
2022/02/22 07:55:13;;;;;;;9.25;3.05;;;;;;;;;;5019699;28;20083;-56
2022/02/22 07:57:38;;;;;;;11.85;3.25;;;;;;;;;;5014258;28;20026;-58
2022/02/22 08:00:05;;;;;;;6.32;2.65;;;;;;;;;;5022505;28;20021;-56
2022/02/22 08:02:31;;;;;;;6.90;2.78;;;;;;;;;;5019028;28;20121;-56
2022/02/22 08:04:56;;;;;;;12.38;3.00;;;;;;;;;;5019557;28;20030;-58
2022/02/22 08:07:22;;;;;;;12.35;3.53;;;;;;;;;;5014170;28;20140;-58
2022/02/22 08:09:48;;;;;;;11.48;2.85;;;;;;;;;;5016074;28;20025;-57
2022/02/22 08:12:14;;;;;;;8.52;3.05;;;;;;;;;;5016637;28;20029;-56
2022/02/22 08:14:40;;;;;;;11.05;3.22;;;;;;;;;;5018622;28;20429;-57
2022/02/22 08:17:05;;;;;;;14.45;3.83;;;;;;;;;;5014444;28;20305;-56
2022/02/22 08:19:31;;;;;;;12.50;3.50;;;;;;;;;;5018939;28;20112;-58
2022/02/22 08:21:57;;;;;;;10.02;3.63;;;;;;;;;;5014396;28;20049;-56
2022/02/22 08:24:24;;;;;;;11.20;3.72;;;;;;;;;;5024026;28;20029;-56
2022/02/22 08:26:51;;;;;;;9.82;3.50;;;;;;;;;;5018013;28;20087;-56
2022/02/22 08:29:17;;;;;;;7.80;3.47;;;;;;;;;;5022963;28;20488;-58
2022/02/22 08:31:42;;;;;;;11.43;3.50;;;;;;;;;;5017452;28;20045;-55
2022/02/22 08:34:08;;;;;;;9.35;3.10;;;;;;;;;;5019977;28;20075;-56
2022/02/22 08:36:34;;;;;;;11.55;2.78;;;;;;;;;;5022694;28;20465;-57
2022/02/22 08:38:59;;;;;;;9.93;2.95;;;;;;;;;;5020972;28;20060;-56
2022/02/22 08:41:25;;;;;;;14.95;3.90;;;;;;;;;;5019173;28;20031;-56
2022/02/22 08:43:51;;;;;;;19.25;4.07;;;;;;;;;;5008091;28;20034;-57
2022/02/22 08:46:18;;;;;;;8.65;2.67;;;;;;;;;;5015684;28;20556;-56
2022/02/22 08:48:43;;;;;;;14.60;2.60;;;;;;;;;;5023098;28;20045;-58
2022/02/22 08:51:09;;;;;;;8.23;2.38;;;;;;;;;;5023285;28;20064;-57
2022/02/22 08:53:35;;;;;;;9.13;2.47;;;;;;;;;;5019475;28;20091;-57
2022/02/22 08:56:02;;;;;;;7.85;2.25;;;;;;;;;;5023368;28;20481;-58
2022/02/22 08:58:27;;;;;;;10.93;3.92;;;;;;;;;;5017397;28;20025;-57
2022/02/22 09:00:53;;;;;;;13.50;2.90;;;;;;;;;;5015396;28;20474;-58
2022/02/22 09:03:18;;;;;;;7.28;2.97;;;;;;;;;;5003959;28;20465;-56
2022/02/22 09:05:44;;;;;;;10.57;3.88;;;;;;;;;;5014721;28;20025;-58
2022/02/22 09:08:10;;;;;;;17.95;3.28;;;;;;;;;;5015359;28;20057;-57
2022/02/22 09:10:35;;;;;;;10.10;2.92;;;;;;;;;;5020815;28;20056;-56
2022/02/22 09:13:02;;;;;;;8.77;3.45;;;;;;;;;;5026241;28;20429;-57
2022/02/22 09:15:31;;;;;;;10.95;3.13;;;;;;;;;;5020524;28;20096;-58
2022/02/22 09:17:57;;;;;;;14.32;3.08;;;;;;;;;;5013832;28;20795;-58
2022/02/22 09:20:23;;;;;;;12.65;3.63;;;;;;;;;;5011150;28;20030;-58
2022/02/22 09:22:49;;;;;;;6.45;2.58;;;;;;;;;;5012266;28;20461;-57
2022/02/22 09:25:16;;;;;;;10.95;3.10;;;;;;;;;;5015855;28;20037;-57
2022/02/22 09:27:43;;;;;;;13.52;3.92;;;;;;;;;;5013217;28;20076;-56
2022/02/22 09:30:14;;;;;;;13.43;4.22;;;;;;;;;;5018445;28;20021;-56
2022/02/22 09:32:41;;;;;;;9.10;3.00;;;;;;;;;;5023621;28;20163;-57
2022/02/22 09:35:07;;;;;;;12.57;3.08;;;;;;;;;;5022820;28;20114;-56
2022/02/22 09:37:33;;;;;;;11.70;3.15;;;;;;;;;;5008795;28;20132;-58
2022/02/22 09:39:58;;;;;;;15.15;2.72;;;;;;;;;;5010429;28;20101;-56
2022/02/22 09:42:25;;;;;;;12.85;2.70;;;;;;;;;;5014122;28;20038;-58
2022/02/22 09:44:52;;;;;;;8.73;2.78;;;;;;;;;;5025199;28;20025;-56
2022/02/22 09:47:18;;;;;;;9.20;3.53;;;;;;;;;;5018388;28;20044;-58
2022/02/22 09:49:44;;;;;;;16.38;4.55;;;;;;;;;;5018024;28;20045;-57
2022/02/22 09:52:10;;;;;;;12.57;3.92;;;;;;;;;;5022038;28;20485;-57
2022/02/22 09:54:35;;;;;;;7.00;2.85;;;;;;;;;;5027131;28;20025;-57
2022/02/22 09:57:01;;;;;;;15.07;3.60;;;;;;;;;;5020351;28;20034;-58
2022/02/22 09:59:26;;;;;;;11.45;3.10;;;;;;;;;;5018752;28;20516;-57
2022/02/22 10:01:54;;;;;;;13.52;3.40;;;;;;;;;;5021456;28;20041;-56
2022/02/22 10:04:20;;;;;;;12.30;3.60;;;;;;;;;;5027634;28;20136;-57
2022/02/22 10:06:46;;;;;;;9.23;3.25;;;;;;;;;;5022163;28;20123;-57
2022/02/22 10:09:11;;;;;;;6.75;2.90;;;;;;;;;;5020565;28;20112;-58
2022/02/22 10:11:51;;;;;;;8.23;2.97;;;;;;;;;;5020077;28;20416;-58
2022/02/22 10:14:27;;;;;;;14.50;3.80;;;;;;;;;;5025599;28;20033;-57
2022/02/22 10:16:55;;;;;;;12.63;3.88;;;;;;;;;;5020896;28;20033;-59
2022/02/22 10:19:23;;;;;;;8.63;2.72;;;;;;;;;;5020649;28;20036;-58
2022/02/22 10:21:55;;;;;;;8.65;2.75;;;;;;;;;;5020901;28;20519;-58
2022/02/22 10:24:21;;;;;;;9.43;3.40;;;;;;;;;;5021626;28;20037;-56
2022/02/22 10:26:48;;;;;;;15.05;3.28;;;;;;;;;;5022726;28;20026;-57
2022/02/22 10:29:15;;;;;;;11.57;2.83;;;;;;;;;;5020095;28;20033;-57
2022/02/22 10:31:41;;;;;;;11.15;3.75;;;;;;;;;;5014983;28;20072;-58
2022/02/22 10:34:06;;;;;;;10.52;2.88;;;;;;;;;;5018206;28;20057;-56
2022/02/22 10:36:34;;;;;;;10.73;3.33;;;;;;;;;;5020693;28;20029;-57
2022/02/22 10:39:11;;;;;;;9.68;2.85;;;;;;;;;;5022219;28;20040;-57
2022/02/22 10:41:45;;;;;;;8.02;2.80;;;;;;;;;;5017021;28;20052;-58
2022/02/22 10:44:12;;;;;;;13.98;3.20;;;;;;;;;;5015920;28;20084;-56
2022/02/22 10:46:45;;;;;;;11.27;2.78;;;;;;;;;;5020644;28;20438;-57
2022/02/22 10:49:15;;;;;;;11.80;2.75;;;;;;;;;;5020678;28;20025;-56
2022/02/22 10:51:43;;;;;;;15.00;4.07;;;;;;;;;;5016435;28;20120;-58
2022/02/22 10:54:16;;;;;;;7.32;2.80;;;;;;;;;;5014638;28;20095;-57
2022/02/22 10:56:42;;;;;;;7.78;2.80;;;;;;;;;;5013904;28;20034;-56
2022/02/22 10:59:07;;;;;;;11.85;3.45;;;;;;;;;;5015789;28;20021;-55
2022/02/22 11:01:33;;;;;;;6.70;3.13;;;;;;;;;;5016614;28;20520;-58
2022/02/22 11:03:59;;;;;;;11.45;3.22;;;;;;;;;;5023595;28;20029;-58
2022/02/22 11:06:25;;;;;;;6.78;2.92;;;;;;;;;;5020014;28;20540;-57
2022/02/22 11:08:53;;;;;;;11.30;3.40;;;;;;;;;;5015327;28;20033;-57
2022/02/22 11:11:27;;;;;;;9.40;2.95;;;;;;;;;;5016060;28;20093;-56
2022/02/22 11:13:59;;;;;;;9.93;4.30;;;;;;;;;;5005680;28;20100;-56
2022/02/22 11:16:25;;;;;;;14.25;3.70;;;;;;;;;;5017573;28;20031;-57
2022/02/22 11:18:55;;;;;;;8.60;3.15;;;;;;;;;;5021921;28;20025;-56
2022/02/22 11:21:30;;;;;;;7.15;2.95;;;;;;;;;;5022733;28;20455;-57
2022/02/22 11:24:04;;;;;;;11.80;3.15;;;;;;;;;;5018523;28;20480;-58
2022/02/22 11:27:00;;;;;;;10.32;3.55;;;;;;;;;;4996033;28;20045;-57
2022/02/22 11:29:28;;;;;;;10.25;2.70;;;;;;;;;;5016833;28;20087;-56
2022/02/22 11:32:11;;;;;;;9.35;2.85;;;;;;;;;;5015402;28;20030;-55
2022/02/22 11:34:41;;;;;;;8.15;2.78;;;;;;;;;;5018474;28;20041;-57
2022/02/22 11:37:17;;;;;;;9.68;2.90;;;;;;;;;;5025543;28;20056;-58
2022/02/22 11:39:52;;;;;;;11.32;3.35;;;;;;;;;;5028804;28;20053;-57
2022/02/22 11:42:28;;;;;;;11.18;3.05;;;;;;;;;;5019134;28;20132;-57
2022/02/22 11:45:11;;;;;;;6.40;3.03;;;;;;;;;;5018279;28;20408;-56
2022/02/22 11:47:39;;;;;;;9.23;2.83;;;;;;;;;;5019844;28;20025;-56
2022/02/22 11:50:12;;;;;;;11.10;3.03;;;;;;;;;;5008056;28;20026;-58
2022/02/22 11:52:50;;;;;;;7.43;2.60;;;;;;;;;;5012944;28;20032;-56
2022/02/22 11:55:21;;;;;;;8.00;3.28;;;;;;;;;;5022075;28;20021;-57
2022/02/22 11:57:49;;;;;;;4.85;2.13;;;;;;;;;;5020398;28;20026;-58
2022/02/22 12:00:17;;;;;;;12.70;3.17;;;;;;;;;;5020584;28;20104;-57
2022/02/22 12:02:42;;;;;;;8.38;3.28;;;;;;;;;;5018693;28;20021;-56
2022/02/22 12:05:25;;;;;;;7.68;2.55;;;;;;;;;;5022298;28;20036;-56
2022/02/22 12:08:14;;;;;;;6.18;2.70;;;;;;;;;;5022175;28;20431;-57
2022/02/22 12:10:45;;;;;;;9.55;2.65;;;;;;;;;;5019922;28;20033;-58
2022/02/22 12:13:13;;;;;;;5.07;2.20;;;;;;;;;;5013691;28;20069;-56
2022/02/22 12:15:40;;;;;;;9.52;2.58;;;;;;;;;;5019655;28;20040;-58
2022/02/22 12:18:20;;;;;;;10.32;2.80;;;;;;;;;;5017245;28;20489;-58
2022/02/22 12:20:47;;;;;;;10.80;2.95;;;;;;;;;;5013680;28;20064;-58
2022/02/22 12:23:20;;;;;;;11.52;3.15;;;;;;;;;;5014698;28;20038;-59
2022/02/22 12:25:46;;;;;;;10.00;3.50;;;;;;;;;;5016011;28;20564;-57
2022/02/22 12:28:12;;;;;;;13.02;3.40;;;;;;;;;;5013095;28;20488;-57
2022/02/22 12:30:41;;;;;;;11.60;2.70;;;;;;;;;;5022467;28;20396;-56
2022/02/22 12:33:07;;;;;;;9.52;2.78;;;;;;;;;;5018279;28;20029;-55
2022/02/22 12:35:38;;;;;;;15.68;3.42;;;;;;;;;;5019356;28;20114;-57
2022/02/22 12:38:25;;;;;;;10.77;3.17;;;;;;;;;;4997945;28;20038;-58
2022/02/22 12:40:52;;;;;;;9.40;3.05;;;;;;;;;;5013288;28;20136;-56
2022/02/22 12:43:19;;;;;;;11.90;3.30;;;;;;;;;;5018616;28;20029;-57
2022/02/22 12:45:49;;;;;;;10.90;2.70;;;;;;;;;;5004429;28;20135;-57
2022/02/22 12:48:16;;;;;;;11.45;3.70;;;;;;;;;;5013816;28;20105;-57
2022/02/22 12:50:42;;;;;;;15.05;4.60;;;;;;;;;;5020434;28;20407;-57
2022/02/22 12:53:08;;;;;;;11.25;3.35;;;;;;;;;;5020178;28;20084;-56
2022/02/22 12:55:46;;;;;;;11.07;3.33;;;;;;;;;;5017715;28;20029;-56
2022/02/22 12:58:12;;;;;;;22.67;6.38;;;;;;;;;;5018641;28;20564;-56
2022/02/22 13:00:40;;;;;;;9.43;3.20;;;;;;;;;;5013868;28;20116;-57
2022/02/22 13:03:14;;;;;;;9.23;2.80;;;;;;;;;;5015450;28;20037;-56
2022/02/22 13:05:43;;;;;;;14.32;3.20;;;;;;;;;;5016855;28;20025;-57
2022/02/22 13:08:10;;;;;;;12.55;2.78;;;;;;;;;;5012137;28;20033;-56
2022/02/22 13:10:43;;;;;;;15.10;4.03;;;;;;;;;;5015007;28;20517;-58
2022/02/22 13:13:10;;;;;;;13.48;3.33;;;;;;;;;;5014371;28;20034;-57
2022/02/22 13:15:35;;;;;;;16.05;3.28;;;;;;;;;;5007970;28;20808;-57
2022/02/22 13:18:21;;;;;;;11.40;3.38;;;;;;;;;;5012363;28;20083;-57
2022/02/22 13:20:49;;;;;;;12.50;3.35;;;;;;;;;;5015947;28;20045;-58
2022/02/22 13:23:15;;;;;;;15.25;3.55;;;;;;;;;;5020398;28;20030;-56
2022/02/22 13:25:56;;;;;;;11.65;2.67;;;;;;;;;;5018930;28;20033;-59
2022/02/22 13:28:31;;;;;;;11.32;3.90;;;;;;;;;;5019343;28;20049;-57
2022/02/22 13:30:57;;;;;;;16.27;3.92;;;;;;;;;;5014704;28;20111;-55
2022/02/22 13:33:23;;;;;;;51.63;16.42;;;;;;;;;;5014749;28;20037;-57
2022/02/22 13:35:56;;;;;;;12.27;3.17;;;;;;;;;;5015916;28;20113;-57
2022/02/22 13:38:22;;;;;;;12.27;3.78;;;;;;;;;;5023870;28;20036;-58
2022/02/22 13:40:48;;;;;;;14.70;3.72;;;;;;;;;;5020639;28;20029;-57
2022/02/22 13:43:14;;;;;;;18.13;3.78;;;;;;;;;;5013998;28;20036;-58
2022/02/22 13:45:42;;;;;;;14.85;3.70;;;;;;;;;;5019692;28;20021;-58
2022/02/22 13:48:10;;;;;;;13.93;3.75;;;;;;;;;;5015781;28;20425;-58
2022/02/22 13:50:36;;;;;;;12.98;3.25;;;;;;;;;;5020104;28;20148;-58
2022/02/22 13:53:08;;;;;;;9.88;3.28;;;;;;;;;;5018880;28;20131;-58
2022/02/22 13:55:50;;;;;;;15.27;4.82;;;;;;;;;;5023278;28;20021;-59
2022/02/22 13:58:20;;;;;;;15.18;4.18;;;;;;;;;;5031670;28;20026;-57
2022/02/22 14:00:48;;;;;;;15.68;3.33;;;;;;;;;;5021991;28;20432;-58
2022/02/22 14:03:13;;;;;;;15.07;4.82;;;;;;;;;;5019421;28;20041;-58
2022/02/22 14:05:39;;;;;;;12.27;2.90;;;;;;;;;;5019846;28;20034;-58
2022/02/22 14:08:06;;;;;;;11.32;3.33;;;;;;;;;;5019074;28;20461;-58
2022/02/22 14:10:33;;;;;;;11.13;3.10;;;;;;;;;;5024355;28;20463;-58
2022/02/22 14:12:59;;;;;;;19.60;3.40;;;;;;;;;;5021318;28;20401;-56
2022/02/22 14:15:25;;;;;;;12.77;3.53;;;;;;;;;;5022757;28;20057;-58
2022/02/22 14:17:50;;;;;;;11.55;3.50;;;;;;;;;;5011776;28;20064;-57
2022/02/22 14:20:16;;;;;;;15.70;3.50;;;;;;;;;;5020202;28;20586;-58
2022/02/22 14:22:43;;;;;;;14.05;3.85;;;;;;;;;;5018112;28;20029;-57
2022/02/22 14:25:10;;;;;;;15.63;4.10;;;;;;;;;;4998612;28;20029;-56
2022/02/22 14:27:36;;;;;;;16.17;4.93;;;;;;;;;;5015097;28;20112;-59
2022/02/22 14:30:06;;;;;;;19.35;3.40;;;;;;;;;;4998558;28;20167;-56
2022/02/22 14:32:32;;;;;;;;;;;;;;;;;;5014884;28;20025;-58
2022/02/22 14:34:59;;;;;;;15.77;3.40;;;;;;;;;;5023237;28;19960;-57
2022/02/22 14:37:26;;;;;;;17.08;3.83;;;;;;;;;;5020416;28;20030;-56
2022/02/22 14:39:52;;;;;;;12.52;3.53;;;;;;;;;;5002259;28;20067;-57
2022/02/22 14:42:17;;;;;;;14.65;3.88;;;;;;;;;;5022271;28;20021;-56